Songa Opal — V7RO5 — position and weather

sailwx.info

Track history (hours):
 
Tides and Currents Weather Stations Pressure Air Temp Water Temp Dewpoint Dewpoint Depression Visibility Wind Speed Wind Dir Waves Ship Positions

Songa Opal

Last reported at 2014-Oct-24 19:21 UTC. Time now 2014-Oct-25 13:29 UTC.
Position N 41°03' E 001°16'.

Length 144 m; draft 6.1 m.

Type: Ship. MMSI: 538003550.

Date/timePositionNaut miles runAvg speedWind from/ knotsBaromVisibWave heightAir tempDewpointWater temp
2014-Oct-24 19:21N 41°03' E 001°16'12 0.4
2014-Oct-23 16:25N 40°56' E 001°28'6 0.8
2014-Oct-23 09:23N 40°50' E 001°31'1315.1
2014-Oct-23 08:33N 40°37' E 001°33'1611.4
2014-Oct-23 07:08N 40°21' E 001°34'710.6
2014-Oct-23 06:27N 40°15' E 001°40'126 3.9
2014-Oct-21 22:24N 38°30' E 003°09'9213.2
2014-Oct-21 15:28N 37°24' E 004°31'1211.9
2014-Oct-21 14:29N 37°16' E 004°41'  
Track history (hours):
 
Tides and Currents Weather Stations Pressure Air Temp Water Temp Dewpoint Dewpoint Depression Visibility Wind Speed Wind Dir Waves Ship Positions

Songa Opal

Last reported at 2014-Oct-24 19:21 UTC. Time now 2014-Oct-25 13:29 UTC.
Position N 41°03' E 001°16'.

Length 144 m; draft 6.1 m.

Type: Ship. MMSI: 538003550.

Date/timePositionNaut miles runAvg speedWind from/ knotsBaromVisibWave heightAir tempDewpointWater temp
2014-Oct-24 19:21N 41°03' E 001°16'12 0.4
2014-Oct-23 16:25N 40°56' E 001°28'6 0.8
2014-Oct-23 09:23N 40°50' E 001°31'1315.1
2014-Oct-23 08:33N 40°37' E 001°33'1611.4
2014-Oct-23 07:08N 40°21' E 001°34'710.6
2014-Oct-23 06:27N 40°15' E 001°40'126 3.9
2014-Oct-21 22:24N 38°30' E 003°09'9213.2
2014-Oct-21 15:28N 37°24' E 004°31'1211.9
2014-Oct-21 14:29N 37°16' E 004°41'  

Dump ship's entire track history